Time;durP1;ratioP1;P1;durP2;ratioP2;P2;SDS_P1;SDS_P2;PMS_P1;PMS_P2;Temp;Humidity;BMP_temperature;BMP_pressure;BME280_temperature;BME280_humidity;BME280_pressure;Samples;Min_cycle;Max_cycle;Signal;HPM_P1;HPM_P2
2021/10/27 00:01:53;;;;;;;18.33;13.27;;;14.40;99.90;;;;;;5055091;28;20040;-91
2021/10/27 00:04:19;;;;;;;20.35;12.57;;;14.40;99.90;;;;;;5038041;28;20063;-90
2021/10/27 00:06:45;;;;;;;20.60;13.80;;;14.40;99.90;;;;;;5054262;28;20103;-90
2021/10/27 00:09:10;;;;;;;17.55;13.80;;;14.40;99.90;;;;;;5051326;28;20024;-90
2021/10/27 00:11:36;;;;;;;16.23;12.20;;;14.40;99.90;;;;;;5072354;28;20060;-89
2021/10/27 00:14:03;;;;;;;17.48;12.45;;;14.40;99.90;;;;;;5070916;28;20047;-91
2021/10/27 00:16:29;;;;;;;15.70;12.45;;;14.40;99.90;;;;;;5072064;28;20126;-89
2021/10/27 00:18:55;;;;;;;18.80;12.93;;;14.40;99.90;;;;;;5056096;28;20025;-90
2021/10/27 00:21:21;;;;;;;16.40;12.13;;;14.40;99.90;;;;;;5066219;28;20048;-90
2021/10/27 00:23:46;;;;;;;15.57;12.20;;;14.40;99.90;;;;;;5056586;28;20025;-90
2021/10/27 00:26:12;;;;;;;20.20;13.68;;;14.40;99.90;;;;;;5054879;28;20024;-91
2021/10/27 00:28:38;;;;;;;17.98;13.18;;;14.40;99.90;;;;;;5022405;28;20028;-91
2021/10/27 00:31:04;;;;;;;18.58;13.48;;;14.50;99.90;;;;;;5053337;28;20098;-91
2021/10/27 00:33:29;;;;;;;15.15;11.57;;;14.50;99.90;;;;;;5054597;28;20465;-91
2021/10/27 00:35:55;;;;;;;21.38;12.57;;;14.50;99.90;;;;;;5070279;28;20028;-90
2021/10/27 00:38:21;;;;;;;20.38;12.52;;;14.50;99.90;;;;;;5037031;28;20039;-90
2021/10/27 00:40:47;;;;;;;15.82;12.07;;;14.50;99.90;;;;;;5038268;28;20040;-91
2021/10/27 00:43:13;;;;;;;16.25;12.35;;;14.50;99.90;;;;;;5055159;28;20036;-91
2021/10/27 00:45:41;;;;;;;21.05;12.60;;;14.50;99.90;;;;;;5037808;28;20450;-92
2021/10/27 00:48:07;;;;;;;16.50;12.35;;;14.50;99.90;;;;;;5051846;28;20118;-91
2021/10/27 00:50:33;;;;;;;16.92;12.40;;;14.60;99.90;;;;;;5028431;28;20111;-91
2021/10/27 00:52:59;;;;;;;16.88;11.88;;;14.60;99.90;;;;;;5051909;28;20037;-90
2021/10/27 00:55:26;;;;;;;18.17;12.75;;;14.60;99.90;;;;;;5059353;28;20027;-91
2021/10/27 00:57:53;;;;;;;22.10;12.85;;;14.60;99.90;;;;;;5070163;28;20266;-91
2021/10/27 01:00:19;;;;;;;19.63;11.77;;;14.60;99.90;;;;;;5062175;28;20466;-89
2021/10/27 01:02:46;;;;;;;19.67;12.90;;;14.60;99.90;;;;;;5050111;28;20040;-90
2021/10/27 01:05:12;;;;;;;17.45;12.05;;;14.60;99.90;;;;;;5050416;28;20040;-90
2021/10/27 01:07:38;;;;;;;19.10;13.20;;;14.60;99.90;;;;;;5038868;28;20024;-91
2021/10/27 01:10:04;;;;;;;21.67;13.13;;;14.60;99.90;;;;;;5072820;28;20029;-90
2021/10/27 01:12:30;;;;;;;16.77;12.45;;;14.60;99.90;;;;;;5073620;28;20021;-90
2021/10/27 01:14:56;;;;;;;13.70;11.13;;;14.60;99.90;;;;;;5054696;28;20385;-89
2021/10/27 01:17:22;;;;;;;18.50;12.07;;;14.60;99.90;;;;;;5039072;28;20385;-90
2021/10/27 01:19:55;;;;;;;16.75;11.00;;;14.60;99.90;;;;;;5036790;28;20125;-90
2021/10/27 01:22:30;;;;;;;18.42;12.00;;;14.60;99.90;;;;;;5072537;28;20024;-90
2021/10/27 01:24:57;;;;;;;17.42;11.48;;;14.60;99.90;;;;;;5049073;28;20029;-91
2021/10/27 01:27:24;;;;;;;14.35;11.48;;;14.60;99.90;;;;;;5055775;28;20029;-90
2021/10/27 01:29:50;;;;;;;17.58;11.07;;;14.60;99.90;;;;;;5055417;28;20020;-90
2021/10/27 01:32:26;;;;;;;15.88;10.70;;;14.70;99.90;;;;;;5053913;28;20075;-90
2021/10/27 01:34:52;;;;;;;18.23;12.75;;;14.60;99.90;;;;;;5055325;28;20027;-91
2021/10/27 01:37:19;;;;;;;16.77;11.65;;;14.60;99.90;;;;;;5055561;28;20382;-91
2021/10/27 01:39:45;;;;;;;16.67;10.98;;;14.60;99.90;;;;;;5056375;28;20078;-92
2021/10/27 01:42:11;;;;;;;17.98;10.90;;;14.60;99.90;;;;;;5054605;28;20029;-91
2021/10/27 01:44:36;;;;;;;18.60;10.55;;;14.70;99.90;;;;;;5075922;28;20052;-90
2021/10/27 01:47:03;;;;;;;15.05;10.20;;;14.60;99.90;;;;;;5096046;28;20028;-89
2021/10/27 01:49:28;;;;;;;15.77;9.75;;;14.70;99.90;;;;;;5081157;28;20017;-91
2021/10/27 01:51:55;;;;;;;15.75;10.60;;;14.60;99.90;;;;;;5074804;28;20043;-90
2021/10/27 01:54:21;;;;;;;13.98;10.05;;;14.60;99.90;;;;;;5090956;28;20028;-91
2021/10/27 01:56:47;;;;;;;17.45;10.25;;;14.60;99.90;;;;;;5068991;28;20027;-91
2021/10/27 01:59:13;;;;;;;13.40;9.77;;;14.60;99.90;;;;;;5034272;28;20036;-90
2021/10/27 02:01:38;;;;;;;14.60;9.35;;;14.70;99.90;;;;;;5058188;28;20033;-91
2021/10/27 02:04:06;;;;;;;15.07;8.90;;;14.60;99.90;;;;;;5038714;28;20028;-91
2021/10/27 02:06:32;;;;;;;14.25;9.55;;;14.70;99.90;;;;;;5054760;28;20017;-91
2021/10/27 02:08:58;;;;;;;13.57;8.65;;;14.70;99.90;;;;;;5040947;28;20475;-90
2021/10/27 02:11:23;;;;;;;14.45;8.43;;;14.60;99.90;;;;;;5040855;28;20060;-91
2021/10/27 02:13:49;;;;;;;12.35;8.65;;;14.70;99.90;;;;;;5057633;28;20012;-92
2021/10/27 02:16:15;;;;;;;13.90;8.40;;;14.70;99.90;;;;;;5058425;28;20031;-91
2021/10/27 02:18:40;;;;;;;14.27;8.38;;;14.70;99.90;;;;;;5055070;28;20373;-91
2021/10/27 02:21:06;;;;;;;12.82;8.55;;;14.70;99.90;;;;;;5057099;28;20052;-91
2021/10/27 02:23:32;;;;;;;14.02;8.45;;;14.70;99.90;;;;;;5051025;28;20140;-90
2021/10/27 02:25:58;;;;;;;14.85;8.25;;;14.70;99.90;;;;;;5024611;28;20046;-91
2021/10/27 02:28:23;;;;;;;14.50;9.75;;;14.70;99.90;;;;;;5039560;28;20052;-91
2021/10/27 02:30:50;;;;;;;13.73;8.45;;;14.70;99.90;;;;;;5057188;28;20047;-91
2021/10/27 02:33:16;;;;;;;16.30;9.38;;;14.70;99.90;;;;;;5041979;28;20060;-91
2021/10/27 02:35:41;;;;;;;15.27;8.73;;;14.70;99.90;;;;;;5056501;28;20440;-91
2021/10/27 02:38:07;;;;;;;11.73;7.60;;;14.70;99.90;;;;;;5039346;28;20029;-91
2021/10/27 02:40:33;;;;;;;14.35;8.05;;;14.80;99.90;;;;;;5043039;28;20055;-91
2021/10/27 02:42:59;;;;;;;11.90;7.93;;;14.70;99.90;;;;;;5042696;28;20039;-91
2021/10/27 02:45:24;;;;;;;15.75;7.93;;;14.70;99.90;;;;;;5059233;28;20070;-92
2021/10/27 02:47:50;;;;;;;12.48;7.57;;;14.70;99.90;;;;;;5042778;28;20071;-92
2021/10/27 02:50:16;;;;;;;11.13;6.97;;;14.70;99.90;;;;;;5077260;28;20385;-90
2021/10/27 02:52:44;;;;;;;12.18;6.40;;;14.70;99.90;;;;;;5042929;28;20035;-91
2021/10/27 02:55:11;;;;;;;13.55;6.70;;;14.70;99.90;;;;;;5059617;28;20052;-91
2021/10/27 02:57:38;;;;;;;9.50;6.28;;;14.70;99.90;;;;;;5042589;28;20016;-90
2021/10/27 03:00:07;;;;;;;10.27;5.93;;;14.70;99.90;;;;;;5058793;28;20047;-90
2021/10/27 03:02:33;;;;;;;10.90;6.55;;;14.70;99.90;;;;;;5059074;28;20024;-91
2021/10/27 03:04:58;;;;;;;13.70;5.65;;;14.70;99.90;;;;;;5060492;28;20024;-89
2021/10/27 03:07:24;;;;;;;15.05;6.20;;;14.70;99.90;;;;;;5043757;28;20035;-90
2021/10/27 03:09:50;;;;;;;10.23;5.32;;;14.70;99.90;;;;;;5059326;28;20025;-91
2021/10/27 03:12:16;;;;;;;10.50;4.95;;;14.70;99.90;;;;;;5022361;28;20100;-91
2021/10/27 03:14:42;;;;;;;10.38;5.00;;;14.80;99.90;;;;;;5024825;28;20397;-90
2021/10/27 03:17:07;;;;;;;10.43;5.00;;;14.80;99.90;;;;;;5075381;28;20056;-92
2021/10/27 03:19:33;;;;;;;11.38;5.05;;;14.80;99.90;;;;;;5041941;28;20393;-91
2021/10/27 03:21:59;;;;;;;10.52;4.85;;;14.80;99.90;;;;;;5041924;28;20126;-91
2021/10/27 03:24:25;;;;;;;13.70;5.18;;;14.80;99.90;;;;;;5021667;28;20039;-88
2021/10/27 03:26:50;;;;;;;11.25;4.55;;;14.70;99.90;;;;;;5058160;28;20032;-90
2021/10/27 03:29:16;;;;;;;10.63;5.03;;;14.70;99.90;;;;;;5039488;28;20029;-92
2021/10/27 03:31:42;;;;;;;8.25;4.25;;;14.70;99.90;;;;;;5070847;28;20032;-91
2021/10/27 03:34:07;;;;;;;8.60;4.63;;;14.70;99.90;;;;;;5041201;28;20028;-91
2021/10/27 03:36:33;;;;;;;11.80;4.60;;;14.80;99.90;;;;;;5025438;28;20028;-90
2021/10/27 03:38:59;;;;;;;8.93;4.50;;;14.70;99.90;;;;;;5057738;28;20032;-91
2021/10/27 03:41:24;;;;;;;12.55;4.47;;;14.70;99.90;;;;;;5041738;28;20489;-91
2021/10/27 03:43:50;;;;;;;9.45;4.22;;;14.80;99.90;;;;;;5058126;28;20027;-89
2021/10/27 03:46:16;;;;;;;11.38;4.20;;;14.80;99.90;;;;;;5024500;28;20120;-91
2021/10/27 03:48:42;;;;;;;10.68;3.80;;;14.80;99.90;;;;;;5024839;28;20035;-91
2021/10/27 03:51:10;;;;;;;9.38;4.15;;;14.80;99.90;;;;;;5057783;28;20025;-90
2021/10/27 03:53:36;;;;;;;10.07;3.90;;;14.80;99.90;;;;;;5057643;28;20084;-91
2021/10/27 03:56:02;;;;;;;12.50;3.97;;;14.70;99.90;;;;;;5040960;28;20028;-91
2021/10/27 03:58:30;;;;;;;9.45;3.78;;;14.80;99.90;;;;;;5073496;28;20112;-90
2021/10/27 04:00:56;;;;;;;11.05;4.03;;;14.80;99.90;;;;;;5074872;28;20031;-91
2021/10/27 04:03:25;;;;;;;9.80;4.03;;;14.80;99.90;;;;;;5041491;28;20040;-90
2021/10/27 04:05:51;;;;;;;10.38;3.88;;;14.80;99.90;;;;;;5057860;28;20580;-90
2021/10/27 04:08:17;;;;;;;10.15;3.67;;;14.80;99.90;;;;;;5057530;28;20024;-90
2021/10/27 04:10:47;;;;;;;8.38;3.80;;;14.80;99.90;;;;;;5041959;28;20047;-91
2021/10/27 04:13:14;;;;;;;7.80;3.67;;;14.80;99.90;;;;;;5041516;28;20032;-90
2021/10/27 04:15:40;;;;;;;7.68;3.30;;;14.80;99.90;;;;;;5057801;28;20029;-91
2021/10/27 04:18:05;;;;;;;12.52;3.88;;;14.80;99.90;;;;;;5040889;28;20021;-91
2021/10/27 04:20:32;;;;;;;8.55;3.45;;;14.80;99.90;;;;;;5047032;28;20048;-90
2021/10/27 04:22:57;;;;;;;8.73;3.95;;;14.80;99.90;;;;;;5035803;28;20148;-91
2021/10/27 04:33:01;;;;;;;12.40;3.53;;;14.80;99.90;;;;;;5053094;28;20287;-89
2021/10/27 04:35:27;;;;;;;11.32;3.58;;;14.80;99.90;;;;;;5019886;28;20127;-89
2021/10/27 04:37:53;;;;;;;8.23;3.50;;;14.80;99.90;;;;;;5019906;28;20060;-89
2021/10/27 04:40:20;;;;;;;11.38;3.92;;;14.90;99.90;;;;;;5036353;28;20132;-88
2021/10/27 04:42:47;;;;;;;8.27;3.20;;;14.90;99.90;;;;;;5027527;28;20025;-95
2021/10/27 04:45:13;;;;;;;10.48;3.58;;;14.90;99.90;;;;;;5048040;28;20465;-95
2021/10/27 04:47:43;;;;;;;9.45;3.60;;;14.90;99.80;;;;;;5047774;28;20429;-96
2021/10/27 04:50:11;;;;;;;8.43;3.60;;;14.90;99.70;;;;;;5047945;28;20021;-95
2021/10/27 04:52:37;;;;;;;11.43;3.70;;;14.90;99.70;;;;;;5049127;28;20032;-96
2021/10/27 04:55:04;;;;;;;10.18;3.75;;;14.90;99.70;;;;;;5028246;28;20473;-94
2021/10/27 04:57:33;;;;;;;10.07;3.60;;;14.90;99.70;;;;;;5050078;28;20054;-95
2021/10/27 05:00:03;;;;;;;11.50;3.75;;;14.90;99.60;;;;;;5050090;28;20025;-96
2021/10/27 05:02:29;;;;;;;8.05;3.70;;;14.90;99.50;;;;;;5040652;28;20029;-88
2021/10/27 05:08:35;;;;;;;11.20;3.70;;;14.90;99.60;;;;;;4989498;28;20157;-88
2021/10/27 05:11:01;;;;;;;8.63;3.25;;;14.90;99.60;;;;;;5031201;28;20036;-88
2021/10/27 05:13:27;;;;;;;8.82;3.17;;;14.90;99.60;;;;;;5010484;28;20030;-89
2021/10/27 05:15:53;;;;;;;10.52;3.47;;;14.90;99.50;;;;;;5038669;28;20061;-88
2021/10/27 05:18:22;;;;;;;7.63;3.00;;;14.90;99.50;;;;;;5057419;28;20044;-88
2021/10/27 05:20:48;;;;;;;10.60;3.58;;;14.90;99.50;;;;;;5039548;28;20078;-88
2021/10/27 05:23:14;;;;;;;9.32;3.38;;;14.90;99.50;;;;;;5036795;28;20065;-88
2021/10/27 05:25:40;;;;;;;11.75;3.38;;;14.90;99.50;;;;;;5023103;28;20025;-89
2021/10/27 05:28:06;;;;;;;9.70;3.38;;;14.90;99.50;;;;;;5039733;28;20020;-89
2021/10/27 05:33:54;;;;;;;7.90;3.33;;;14.90;99.50;;;;;;5067617;28;20063;-96
2021/10/27 05:36:26;;;;;;;12.10;3.63;;;14.90;99.40;;;;;;5032624;28;20124;-94
2021/10/27 05:38:51;;;;;;;7.15;3.40;;;14.90;99.40;;;;;;5042101;28;20029;-89
2021/10/27 05:41:20;;;;;;;12.07;4.13;;;14.80;99.40;;;;;;5039587;28;20028;-88
2021/10/27 05:43:47;;;;;;;9.73;3.80;;;14.80;99.40;;;;;;5006996;28;20047;-88
2021/10/27 05:46:13;;;;;;;11.55;4.22;;;14.80;99.40;;;;;;5017147;28;20545;-89
2021/10/27 05:48:43;;;;;;;10.43;3.75;;;14.80;99.40;;;;;;5004121;28;20148;-89
2021/10/27 05:51:15;;;;;;;9.45;3.80;;;14.80;99.40;;;;;;5023637;28;20029;-89
2021/10/27 05:56:25;;;;;;;10.45;3.80;;;14.80;99.40;;;;;;5033504;28;20045;-88
2021/10/27 05:58:51;;;;;;;7.53;3.75;;;14.80;99.40;;;;;;5003268;28;20037;-88
2021/10/27 06:01:16;;;;;;;10.38;4.03;;;14.80;99.40;;;;;;5016555;28;20025;-89
2021/10/27 06:03:42;;;;;;;8.60;3.80;;;14.80;99.40;;;;;;5059183;28;20385;-89
2021/10/27 06:06:11;;;;;;;11.85;3.65;;;14.80;99.40;;;;;;5023638;28;20382;-89
2021/10/27 06:08:38;;;;;;;10.20;3.88;;;14.80;99.40;;;;;;5012478;28;20049;-89
2021/10/27 06:11:10;;;;;;;11.75;4.68;;;14.70;99.40;;;;;;5011341;28;20033;-88
2021/10/27 06:13:45;;;;;;;9.02;4.32;;;14.70;99.70;;;;;;5029044;28;20074;-88
2021/10/27 06:16:14;;;;;;;9.02;3.80;;;14.80;99.40;;;;;;5039795;28;20033;-89
2021/10/27 06:18:41;;;;;;;9.27;3.90;;;14.70;99.40;;;;;;5013298;28;20025;-88
2021/10/27 06:21:09;;;;;;;8.70;3.88;;;14.70;99.40;;;;;;5010441;28;20421;-88
2021/10/27 06:23:38;;;;;;;10.45;3.97;;;14.70;99.40;;;;;;5050158;28;20489;-95
2021/10/27 06:26:07;;;;;;;9.05;3.88;;;14.70;99.40;;;;;;5036261;28;20067;-95
2021/10/27 06:28:54;;;;;;;9.45;4.65;;;14.70;99.40;;;;;;5070813;28;20075;-95
2021/10/27 06:31:28;;;;;;;9.88;3.92;;;14.70;99.40;;;;;;5053681;28;20024;-95
2021/10/27 06:37:05;;;;;;;17.45;5.38;;;14.70;99.40;;;;;;5070363;28;20036;-96
2021/10/27 06:47:57;;;;;;;11.43;4.70;;;14.70;99.40;;;;;;5055279;28;20056;-94
2021/10/27 06:50:25;;;;;;;9.82;4.40;;;14.60;99.40;;;;;;5054412;28;20478;-95
2021/10/27 06:52:52;;;;;;;9.93;4.68;;;14.60;99.30;;;;;;5036428;28;20047;-95
2021/10/27 06:55:18;;;;;;;10.27;4.55;;;14.60;99.40;;;;;;5051736;28;20040;-95
2021/10/27 06:57:44;;;;;;;11.63;5.30;;;14.60;99.40;;;;;;5035240;28;20125;-95
2021/10/27 07:00:16;;;;;;;14.52;5.28;;;14.60;99.40;;;;;;5053002;28;20017;-94
2021/10/27 07:16:21;;;;;;;11.85;5.25;;;14.60;99.30;;;;;;5063811;28;20126;-95
2021/10/27 07:18:48;;;;;;;10.07;4.57;;;14.50;99.30;;;;;;5030884;28;20041;-96
2021/10/27 07:21:14;;;;;;;12.02;4.95;;;14.50;99.30;;;;;;5047063;28;20113;-94
2021/10/27 07:23:40;;;;;;;12.90;5.15;;;14.50;99.30;;;;;;5055642;28;20025;-95
2021/10/27 07:26:08;;;;;;;11.35;4.47;;;14.50;99.40;;;;;;5035338;28;20017;-94
2021/10/27 07:28:36;;;;;;;12.88;5.13;;;14.50;99.40;;;;;;5051124;28;20036;-93
2021/10/27 07:31:03;;;;;;;12.20;5.80;;;14.50;99.40;;;;;;5033449;28;20025;-94
2021/10/27 07:33:35;;;;;;;9.45;5.22;;;14.50;99.50;;;;;;5051368;28;20083;-93
2021/10/27 07:41:32;;;;;;;12.80;5.13;;;14.60;99.40;;;;;;5068334;28;20098;-94
2021/10/27 07:44:03;;;;;;;12.10;5.35;;;14.50;99.40;;;;;;5031940;28;20037;-94
2021/10/27 07:46:31;;;;;;;10.95;4.97;;;14.50;99.40;;;;;;5030090;28;20074;-95
2021/10/27 07:48:57;;;;;;;13.38;6.00;;;14.60;99.40;;;;;;5050395;28;20382;-94
2021/10/27 07:51:23;;;;;;;11.85;4.97;;;14.50;99.40;;;;;;5026763;28;20029;-94
2021/10/27 07:53:52;;;;;;;10.70;4.93;;;14.50;99.40;;;;;;5044152;28;20024;-95
2021/10/27 07:56:18;;;;;;;14.77;5.63;;;14.50;99.40;;;;;;5042596;28;20067;-95
2021/10/27 07:58:48;;;;;;;9.52;5.88;;;14.50;99.40;;;;;;5048623;28;20032;-94
2021/10/27 08:01:16;;;;;;;13.75;5.95;;;14.50;99.40;;;;;;5048149;28;20104;-95
2021/10/27 08:03:42;;;;;;;10.20;6.22;;;14.50;99.40;;;;;;5038137;28;20064;-96
2021/10/27 08:06:10;;;;;;;11.98;6.28;;;14.50;99.40;;;;;;5039129;28;20033;-94
2021/10/27 08:08:38;;;;;;;14.27;6.35;;;14.40;99.40;;;;;;5045708;28;20470;-94
2021/10/27 08:11:06;;;;;;;9.68;6.13;;;14.40;99.40;;;;;;5029317;28;20017;-94
2021/10/27 08:13:32;;;;;;;12.05;6.07;;;14.40;99.50;;;;;;5043131;28;20040;-94
2021/10/27 08:15:58;;;;;;;13.00;6.50;;;14.40;99.50;;;;;;5021769;28;20057;-95
2021/10/27 08:18:26;;;;;;;11.70;5.68;;;14.40;99.50;;;;;;5035982;28;20024;-92
2021/10/27 08:20:52;;;;;;;11.93;6.18;;;14.40;99.50;;;;;;5027669;28;20036;-93
2021/10/27 08:23:22;;;;;;;14.70;6.70;;;14.40;99.60;;;;;;5033199;28;20025;-95
2021/10/27 08:25:55;;;;;;;13.85;6.78;;;14.50;99.60;;;;;;5031288;28;20494;-95
2021/10/27 08:28:28;;;;;;;13.55;6.45;;;14.50;99.60;;;;;;5047098;28;20023;-93
2021/10/27 08:33:47;;;;;;;12.05;6.15;;;14.60;99.60;;;;;;5039060;28;20051;-83
2021/10/27 08:36:13;;;;;;;11.32;5.82;;;14.60;99.60;;;;;;5052038;28;20033;-84
2021/10/27 08:38:39;;;;;;;10.70;6.97;;;14.70;99.60;;;;;;5035518;28;20021;-83
2021/10/27 08:41:04;;;;;;;14.93;8.10;;;14.70;99.70;;;;;;5053263;28;20094;-83
2021/10/27 08:43:33;;;;;;;15.05;6.90;;;14.70;99.40;;;;;;5018493;28;20386;-84
2021/10/27 08:46:04;;;;;;;10.20;6.25;;;14.80;99.50;;;;;;5015564;28;20029;-84
2021/10/27 08:48:35;;;;;;;11.50;6.15;;;14.80;99.40;;;;;;5021299;28;20021;-84
2021/10/27 08:51:06;;;;;;;11.95;6.97;;;14.90;99.30;;;;;;5035332;28;20017;-84
2021/10/27 08:53:34;;;;;;;;;;;14.80;99.10;;;;;;5053397;28;20505;-83
2021/10/27 08:56:03;;;;;;;13.23;6.68;;;14.80;99.10;;;;;;5035146;28;19904;-84
2021/10/27 09:17:05;;;;;;;13.05;7.35;;;14.90;99.00;;;;;;5025058;28;20115;-95
2021/10/27 09:35:12;;;;;;;;;;;15.20;99.00;;;;;;5032733;28;20041;-93
2021/10/27 09:37:58;;;;;;;10.10;7.18;;;15.20;99.00;;;;;;5032759;28;19905;-95
2021/10/27 10:05:20;;;;;;;11.05;6.30;;;15.90;98.40;;;;;;5046701;28;20035;-94
2021/10/27 10:07:47;;;;;;;10.48;6.47;;;16.00;97.90;;;;;;5036705;28;20035;-91
2021/10/27 10:10:14;;;;;;;11.43;5.90;;;16.00;97.70;;;;;;5048187;28;20493;-93
2021/10/27 10:12:51;;;;;;;11.38;6.03;;;16.00;97.50;;;;;;5039085;28;20040;-94
2021/10/27 10:15:23;;;;;;;12.27;7.47;;;16.10;97.30;;;;;;5046795;28;20026;-94
2021/10/27 10:17:51;;;;;;;10.13;6.22;;;16.20;97.40;;;;;;5027326;28;20113;-94
2021/10/27 10:20:19;;;;;;;10.75;5.95;;;16.20;97.40;;;;;;5033680;28;20029;-94
2021/10/27 10:22:45;;;;;;;9.55;5.80;;;16.30;97.30;;;;;;5048432;28;20127;-95
2021/10/27 10:25:14;;;;;;;18.60;7.20;;;16.30;97.40;;;;;;5044877;28;20021;-94
2021/10/27 10:27:42;;;;;;;8.60;5.57;;;16.40;96.90;;;;;;5044261;28;20052;-94
2021/10/27 10:31:00;;;;;;;11.02;6.20;;;16.50;96.90;;;;;;5044587;28;20021;-92
2021/10/27 10:33:43;;;;;;;11.85;6.10;;;16.60;96.70;;;;;;5011257;28;20044;-94
2021/10/27 10:36:33;;;;;;;13.90;6.10;;;16.60;96.40;;;;;;5032796;28;20018;-95
2021/10/27 10:39:24;;;;;;;11.15;6.28;;;16.70;96.30;;;;;;5026761;28;20083;-95
2021/10/27 11:02:39;;;;;;;8.70;4.45;;;17.20;95.00;;;;;;5044702;28;20033;-95
2021/10/27 11:25:00;;;;;;;7.47;4.13;;;17.80;93.30;;;;;;5026634;28;20080;-93
2021/10/27 11:37:18;;;;;;;8.70;4.25;;;17.70;93.40;;;;;;5017375;28;20025;-95
2021/10/27 11:38:55;;;;;;;8.65;3.85;;;17.80;92.50;;;;;;5028580;28;20037;-93
2021/10/27 11:41:42;;;;;;;8.75;4.47;;;17.70;92.70;;;;;;5020861;23;20053;-84
2021/10/27 11:44:15;;;;;;;7.97;4.32;;;17.70;92.60;;;;;;5027668;28;20029;-87
2021/10/27 11:47:01;;;;;;;7.47;4.10;;;17.70;92.80;;;;;;4982742;28;20100;-87
2021/10/27 11:49:39;;;;;;;8.85;4.07;;;17.70;93.00;;;;;;5013548;28;20022;-87
2021/10/27 11:52:05;;;;;;;8.07;3.67;;;17.70;92.90;;;;;;5013447;28;20034;-86
2021/10/27 11:54:31;;;;;;;7.47;3.80;;;17.70;92.80;;;;;;5029933;28;20022;-87
2021/10/27 11:57:00;;;;;;;6.20;3.53;;;17.70;92.90;;;;;;5013307;28;20387;-88
2021/10/27 11:59:48;;;;;;;8.85;3.70;;;17.70;92.90;;;;;;5023355;28;20037;-85
2021/10/27 12:02:15;;;;;;;6.97;3.80;;;17.80;93.10;;;;;;5015683;28;20025;-84
2021/10/27 12:04:41;;;;;;;7.78;3.50;;;17.80;93.20;;;;;;5013173;28;20525;-88
2021/10/27 12:07:17;;;;;;;8.48;4.13;;;17.80;93.10;;;;;;5023819;28;20017;-88
2021/10/27 12:12:33;;;;;;;9.18;4.40;;;17.80;92.30;;;;;;5010250;28;20034;-87
2021/10/27 12:18:21;;;;;;;9.75;3.97;;;17.80;92.70;;;;;;5014001;28;20121;-87
2021/10/27 12:20:36;;;;;;;6.95;3.80;;;17.80;92.10;;;;;;4993740;28;20569;-88
2021/10/27 12:23:07;;;;;;;9.65;4.22;;;17.80;92.30;;;;;;5019312;28;20475;-89
2021/10/27 12:25:33;;;;;;;6.70;3.42;;;17.80;92.20;;;;;;5029807;28;20069;-87
2021/10/27 12:28:05;;;;;;;8.73;4.53;;;17.70;92.30;;;;;;5012938;28;20026;-88
2021/10/27 12:30:41;;;;;;;8.45;3.95;;;17.70;92.30;;;;;;5009779;28;20361;-88
2021/10/27 12:33:07;;;;;;;7.72;3.92;;;17.80;92.40;;;;;;5011043;28;20088;-88
2021/10/27 12:35:33;;;;;;;7.05;3.97;;;17.80;92.40;;;;;;5013096;28;20415;-89
2021/10/27 12:38:24;;;;;;;7.65;4.50;;;17.80;92.70;;;;;;5012870;28;20034;-88
2021/10/27 12:40:51;;;;;;;;;;;17.80;92.40;;;;;;5015063;28;20061;-87
2021/10/27 12:43:19;;;;;;;7.57;4.57;;;17.80;92.40;;;;;;5028989;28;19909;-87
2021/10/27 12:45:55;;;;;;;11.30;4.85;;;17.80;92.10;;;;;;5012176;28;20041;-87
2021/10/27 12:48:24;;;;;;;10.27;4.53;;;17.80;92.20;;;;;;5013090;28;20030;-87
2021/10/27 12:50:57;;;;;;;10.05;4.57;;;17.80;92.20;;;;;;5029162;28;20029;-88
2021/10/27 12:53:43;;;;;;;8.80;4.03;;;17.80;92.30;;;;;;5013662;28;20108;-87
2021/10/27 12:56:13;;;;;;;9.60;4.32;;;17.90;92.30;;;;;;5028973;28;20026;-87
2021/10/27 12:58:44;;;;;;;8.55;4.07;;;17.90;92.40;;;;;;5029179;28;20112;-87
2021/10/27 13:01:30;;;;;;;8.10;4.03;;;17.90;91.90;;;;;;5029083;28;20030;-88
2021/10/27 13:30:12;;;;;;;9.93;4.18;;;18.10;91.30;;;;;;5020499;28;20045;-88
2021/10/27 13:32:44;;;;;;;7.65;4.50;;;18.20;91.20;;;;;;5038698;28;20056;-86
2021/10/27 13:35:09;;;;;;;7.20;3.90;;;18.20;91.20;;;;;;5033893;28;20028;-88
2021/10/27 13:37:37;;;;;;;7.90;3.88;;;18.20;91.00;;;;;;5015490;28;20025;-86
2021/10/27 13:40:04;;;;;;;10.82;4.28;;;18.20;90.90;;;;;;5005396;28;20802;-86
2021/10/27 13:42:41;;;;;;;12.82;4.50;;;18.20;91.10;;;;;;5029411;28;20057;-86
2021/10/27 13:47:46;;;;;;;6.78;3.60;;;18.10;90.90;;;;;;5012185;28;20037;-86
2021/10/27 14:06:40;;;;;;;7.85;3.40;;;18.00;90.20;;;;;;5004171;28;20561;-87
2021/10/27 14:09:13;;;;;;;5.50;3.20;;;18.10;90.00;;;;;;5017759;28;20057;-87
2021/10/27 15:20:18;;;;;;;9.18;3.13;;;17.80;90.80;;;;;;4998510;28;20573;-94
2021/10/27 15:22:59;;;;;;;7.95;3.05;;;17.70;91.00;;;;;;4998392;28;20027;-94
2021/10/27 15:31:20;;;;;;;9.93;3.60;;;17.70;91.00;;;;;;5016285;28;20503;-94
2021/10/27 15:40:19;;;;;;;7.60;2.65;;;17.70;91.20;;;;;;5017739;28;20038;-95
2021/10/27 15:50:55;;;;;;;7.25;2.95;;;17.60;91.40;;;;;;5017420;28;20052;-94
2021/10/27 15:53:21;;;;;;;7.35;3.22;;;17.60;91.30;;;;;;5016325;28;20133;-94
2021/10/27 15:55:49;;;;;;;6.47;2.40;;;17.50;91.50;;;;;;5015736;28;20026;-94
2021/10/27 15:58:15;;;;;;;8.45;2.90;;;17.50;91.50;;;;;;5017595;28;20029;-94
2021/10/27 16:04:04;;;;;;;6.60;2.63;;;17.40;91.40;;;;;;5016974;28;20048;-95
2021/10/27 16:06:34;;;;;;;7.78;3.10;;;17.40;91.50;;;;;;5017353;28;20057;-94
2021/10/27 16:09:02;;;;;;;6.10;2.70;;;17.30;91.60;;;;;;5017912;28;20379;-95
2021/10/27 16:11:28;;;;;;;7.47;2.60;;;17.30;91.70;;;;;;5016125;28;20043;-94
2021/10/27 16:14:28;;;;;;;8.45;2.95;;;17.20;91.60;;;;;;5015864;28;20021;-92
2021/10/27 16:16:54;;;;;;;6.93;3.13;;;17.20;91.70;;;;;;5033157;28;20022;-95
2021/10/27 16:19:20;;;;;;;8.40;2.75;;;17.20;91.80;;;;;;5033645;28;20364;-93
2021/10/27 16:21:46;;;;;;;5.05;2.17;;;17.10;91.90;;;;;;5015378;28;20034;-89
2021/10/27 16:24:12;;;;;;;7.43;2.40;;;17.10;92.00;;;;;;5014964;28;20029;-94
2021/10/27 16:26:38;;;;;;;7.13;2.40;;;17.10;92.10;;;;;;5030957;28;20133;-95
2021/10/27 16:29:04;;;;;;;7.28;2.90;;;17.10;92.10;;;;;;5015771;28;20132;-93
2021/10/27 16:31:31;;;;;;;6.63;2.40;;;17.10;92.20;;;;;;5015384;28;20379;-93
2021/10/27 16:33:58;;;;;;;5.13;2.50;;;17.00;92.20;;;;;;5015422;28;20036;-94
2021/10/27 16:36:23;;;;;;;5.75;2.38;;;17.00;92.10;;;;;;5016068;28;20053;-93
2021/10/27 16:38:51;;;;;;;6.47;2.67;;;17.00;92.20;;;;;;5016532;28;20029;-94
2021/10/27 16:41:18;;;;;;;8.32;3.40;;;16.90;92.20;;;;;;5033084;28;20072;-94
2021/10/27 16:43:44;;;;;;;7.30;2.85;;;16.80;92.30;;;;;;5016261;28;20030;-94
2021/10/27 16:46:11;;;;;;;5.75;2.30;;;16.80;92.50;;;;;;5033249;28;20037;-93
2021/10/27 16:48:38;;;;;;;9.90;2.47;;;16.70;92.50;;;;;;5019184;28;20021;-94
2021/10/27 16:51:04;;;;;;;6.25;2.63;;;16.70;92.60;;;;;;5037248;28;20018;-94
2021/10/27 16:53:30;;;;;;;7.93;2.55;;;16.60;92.60;;;;;;5034745;28;20036;-94
2021/10/27 16:55:57;;;;;;;6.38;2.67;;;16.50;92.80;;;;;;5037813;28;20029;-94
2021/10/27 16:58:24;;;;;;;6.90;3.05;;;16.50;92.90;;;;;;5032270;28;20030;-93
2021/10/27 17:00:50;;;;;;;7.72;2.55;;;16.40;92.90;;;;;;5028457;28;20026;-93
2021/10/27 17:03:16;;;;;;;4.82;2.60;;;16.40;93.00;;;;;;5050679;28;20030;-93
2021/10/27 17:05:45;;;;;;;10.07;3.20;;;16.40;93.00;;;;;;5024098;28;20026;-91
2021/10/27 17:08:17;;;;;;;6.47;2.58;;;16.30;93.30;;;;;;5022043;28;20013;-93
2021/10/27 17:10:49;;;;;;;9.05;3.22;;;16.30;93.30;;;;;;5031784;28;20470;-91
2021/10/27 17:13:16;;;;;;;6.75;2.90;;;16.20;93.40;;;;;;5039521;28;20068;-93
2021/10/27 17:15:42;;;;;;;4.82;2.50;;;16.20;93.50;;;;;;5039202;28;20057;-95
2021/10/27 17:18:09;;;;;;;7.47;2.80;;;16.10;93.50;;;;;;5028002;28;20048;-95
2021/10/27 17:20:50;;;;;;;9.48;2.95;;;16.10;93.60;;;;;;5029325;28;20038;-92
2021/10/27 17:23:39;;;;;;;8.63;3.13;;;16.10;93.60;;;;;;5018368;28;20034;-95
2021/10/27 17:26:05;;;;;;;10.55;3.70;;;16.00;93.80;;;;;;5018411;28;20076;-94
2021/10/27 17:28:32;;;;;;;7.90;3.30;;;15.90;93.80;;;;;;5021545;28;20037;-94
2021/10/27 17:30:58;;;;;;;6.22;2.90;;;15.90;93.80;;;;;;5021368;28;20018;-95
2021/10/27 17:33:25;;;;;;;5.78;2.80;;;15.90;93.80;;;;;;5038149;28;20096;-94
2021/10/27 17:35:53;;;;;;;5.88;3.10;;;15.90;93.90;;;;;;5036531;28;20025;-94
2021/10/27 17:38:19;;;;;;;7.35;3.15;;;15.80;94.00;;;;;;5014249;28;20054;-92
2021/10/27 17:40:47;;;;;;;5.68;3.25;;;15.70;94.20;;;;;;5001185;28;20081;-93
2021/10/27 17:43:13;;;;;;;7.68;3.17;;;15.70;94.30;;;;;;4985632;28;20101;-93
2021/10/27 17:45:41;;;;;;;11.93;3.67;;;15.70;94.40;;;;;;5001172;28;20122;-94
2021/10/27 17:48:24;;;;;;;6.45;3.22;;;15.60;94.40;;;;;;5017807;28;20058;-93
2021/10/27 17:50:58;;;;;;;7.10;3.30;;;15.60;94.40;;;;;;5036138;28;20022;-94